createdAt,value
2022-09-14T00:01:27.360Z,19.50
2022-09-14T00:03:59.811Z,19.50
2022-09-14T00:06:28.264Z,19.50
2022-09-14T00:08:56.708Z,19.50
2022-09-14T00:11:25.981Z,19.50
2022-09-14T00:13:53.318Z,19.50
2022-09-14T00:16:23.691Z,19.50
2022-09-14T00:18:52.503Z,19.60
2022-09-14T00:21:19.927Z,19.60
2022-09-14T00:23:46.700Z,19.50
2022-09-14T00:26:16.923Z,19.50
2022-09-14T00:28:46.489Z,19.50
2022-09-14T00:31:13.868Z,19.50
2022-09-14T00:33:45.214Z,19.50
2022-09-14T00:36:14.726Z,19.50
2022-09-14T00:38:42.162Z,19.60
2022-09-14T00:41:13.111Z,19.60
2022-09-14T00:43:53.545Z,19.60
2022-09-14T00:46:20.647Z,19.50
2022-09-14T00:48:47.782Z,19.50
2022-09-14T00:51:16.842Z,19.50
2022-09-14T00:53:44.024Z,19.40
2022-09-14T00:56:11.114Z,19.50
2022-09-14T00:58:38.770Z,19.50
2022-09-14T01:01:05.811Z,19.50
2022-09-14T01:03:32.735Z,19.50
2022-09-14T01:06:57.152Z,19.50
2022-09-14T01:09:32.149Z,19.50
2022-09-14T01:12:11.091Z,19.50
2022-09-14T01:14:56.935Z,19.40
2022-09-14T01:18:08.376Z,19.40
2022-09-14T01:21:03.730Z,19.30
2022-09-14T01:24:06.066Z,19.30
2022-09-14T01:26:57.883Z,19.30
2022-09-14T01:29:25.151Z,19.30
2022-09-14T01:32:06.930Z,19.30
2022-09-14T01:34:57.948Z,19.30
2022-09-14T01:37:32.526Z,19.20
2022-09-14T01:40:21.225Z,19.20
2022-09-14T01:43:00.061Z,19.20
2022-09-14T01:45:29.041Z,19.20
2022-09-14T01:48:03.076Z,19.20
2022-09-14T01:50:38.199Z,19.20
2022-09-14T01:53:16.703Z,19.20
2022-09-14T01:55:51.464Z,19.20
2022-09-14T01:58:44.372Z,19.20
2022-09-14T02:01:18.672Z,19.20
2022-09-14T02:03:53.722Z,19.20
2022-09-14T02:06:34.436Z,19.10
2022-09-14T02:09:02.269Z,19.10
2022-09-14T02:11:29.054Z,19.10
2022-09-14T02:13:55.994Z,19.00
2022-09-14T02:16:23.782Z,19.10
2022-09-14T02:18:50.745Z,19.10
2022-09-14T02:21:21.411Z,19.10
2022-09-14T02:23:49.200Z,19.10
2022-09-14T02:26:17.499Z,19.10
2022-09-14T02:28:44.339Z,18.90
2022-09-14T02:31:32.325Z,18.70
2022-09-14T02:34:17.932Z,18.80
2022-09-14T02:37:03.605Z,18.90
2022-09-14T02:39:58.646Z,19.00
2022-09-14T02:42:46.649Z,19.10
2022-09-14T02:45:39.162Z,19.00
2022-09-14T02:48:29.902Z,18.80
2022-09-14T02:51:01.879Z,18.80
2022-09-14T02:53:34.864Z,18.50
2022-09-14T02:56:08.274Z,18.50
2022-09-14T02:58:40.713Z,18.50
2022-09-14T03:01:09.636Z,18.40
2022-09-14T03:03:36.745Z,18.40
2022-09-14T03:06:04.510Z,18.30
2022-09-14T03:08:31.874Z,18.20
2022-09-14T03:10:58.891Z,18.20
2022-09-14T03:13:26.037Z,18.20
2022-09-14T03:15:53.622Z,18.20
2022-09-14T03:18:20.594Z,18.20
2022-09-14T03:20:47.501Z,18.30
2022-09-14T03:23:15.010Z,18.30
2022-09-14T03:25:44.167Z,18.30
2022-09-14T03:28:12.409Z,18.30
2022-09-14T03:30:39.582Z,18.30
2022-09-14T03:33:06.722Z,18.40
2022-09-14T03:35:33.643Z,18.40
2022-09-14T03:38:03.161Z,18.40
2022-09-14T03:40:30.786Z,18.50
2022-09-14T03:42:58.001Z,18.50
2022-09-14T03:45:25.549Z,18.50
2022-09-14T03:47:52.992Z,18.70
2022-09-14T03:50:20.274Z,18.50
2022-09-14T03:52:47.646Z,18.50
2022-09-14T03:55:14.662Z,18.40
2022-09-14T03:57:41.503Z,18.50
2022-09-14T04:00:10.720Z,18.30
2022-09-14T04:02:41.353Z,18.30
2022-09-14T04:05:08.689Z,18.30
2022-09-14T04:07:38.277Z,18.20
2022-09-14T04:10:07.087Z,18.40
2022-09-14T04:12:36.285Z,18.30
2022-09-14T04:15:06.938Z,18.20
2022-09-14T04:17:34.050Z,18.20
2022-09-14T04:20:00.985Z,18.20
2022-09-14T04:22:27.787Z,18.30
2022-09-14T04:24:54.695Z,18.40
2022-09-14T04:27:21.574Z,18.40
2022-09-14T04:29:50.438Z,18.40
2022-09-14T04:32:17.562Z,18.30
2022-09-14T04:34:44.438Z,18.30
2022-09-14T04:37:11.274Z,18.00
2022-09-14T04:39:38.137Z,18.10
2022-09-14T04:42:05.280Z,18.00
2022-09-14T04:44:32.116Z,18.00
2022-09-14T04:46:59.054Z,18.10
2022-09-14T04:49:25.909Z,18.20
2022-09-14T04:51:52.757Z,18.20
2022-09-14T04:54:19.659Z,18.20
2022-09-14T04:56:46.504Z,18.30
2022-09-14T04:59:15.319Z,18.30
2022-09-14T05:01:44.970Z,18.30
2022-09-14T05:04:12.321Z,18.40
2022-09-14T05:06:41.240Z,18.50
2022-09-14T05:09:13.727Z,18.50
2022-09-14T05:11:41.138Z,18.40
2022-09-14T05:14:09.694Z,18.40
2022-09-14T05:16:39.607Z,18.30
2022-09-14T05:19:08.553Z,18.40
2022-09-14T05:22:14.337Z,18.50
2022-09-14T05:30:36.951Z,18.40
2022-09-14T05:33:56.304Z,18.50
2022-09-14T05:37:12.398Z,18.50
2022-09-14T05:40:11.951Z,18.50
2022-09-14T05:49:39.585Z,18.50
2022-09-14T05:52:14.869Z,18.60
2022-09-14T05:54:53.367Z,18.70
2022-09-14T06:00:36.911Z,18.60
2022-09-14T06:03:30.243Z,18.60
2022-09-14T06:06:29.555Z,18.60
2022-09-14T06:09:23.769Z,18.60
2022-09-14T06:12:34.700Z,18.50
2022-09-14T06:15:20.884Z,18.40
2022-09-14T06:18:05.740Z,18.50
2022-09-14T06:20:51.942Z,18.50
2022-09-14T06:23:43.071Z,18.50
2022-09-14T06:26:31.644Z,18.40
2022-09-14T06:29:04.712Z,18.40
2022-09-14T06:31:59.289Z,18.40
2022-09-14T06:34:36.255Z,18.40
2022-09-14T06:37:11.226Z,18.50
2022-09-14T06:39:44.050Z,18.40
2022-09-14T06:42:14.320Z,18.50
2022-09-14T06:44:52.874Z,18.40
2022-09-14T06:47:35.505Z,18.40
2022-09-14T06:50:08.843Z,18.30
2022-09-14T06:53:07.840Z,18.30
2022-09-14T06:55:52.704Z,18.40
2022-09-14T06:58:27.605Z,18.40
2022-09-14T07:01:03.313Z,18.50
2022-09-14T07:03:31.708Z,18.60
2022-09-14T07:06:07.329Z,18.60
2022-09-14T07:08:37.471Z,18.60
2022-09-14T07:11:06.131Z,18.50
2022-09-14T07:13:33.283Z,18.50
2022-09-14T07:16:00.386Z,18.50
2022-09-14T07:18:34.282Z,18.50
2022-09-14T07:21:10.320Z,18.50
2022-09-14T07:23:39.532Z,18.60
2022-09-14T07:26:17.500Z,18.60
2022-09-14T07:28:49.615Z,18.60
2022-09-14T07:31:32.401Z,18.70
2022-09-14T07:34:05.917Z,18.70
2022-09-14T07:36:35.544Z,18.70
2022-09-14T07:39:05.514Z,18.70
2022-09-14T07:41:34.357Z,18.80
2022-09-14T07:44:03.985Z,18.80
2022-09-14T07:46:38.278Z,18.90
2022-09-14T07:49:10.581Z,18.80
2022-09-14T07:51:40.934Z,18.90
2022-09-14T07:54:13.896Z,18.90
2022-09-14T07:56:46.057Z,18.90
2022-09-14T07:59:35.134Z,18.90
2022-09-14T08:02:02.142Z,18.90
2022-09-14T08:04:32.393Z,19.00
2022-09-14T08:06:59.678Z,19.00
2022-09-14T08:09:28.072Z,18.90
2022-09-14T08:11:58.422Z,18.90
2022-09-14T08:14:28.260Z,19.00
2022-09-14T08:17:01.247Z,19.00
2022-09-14T08:19:29.678Z,19.10
2022-09-14T08:22:01.169Z,19.10
2022-09-14T08:24:32.413Z,19.10
2022-09-14T08:27:00.280Z,19.20
2022-09-14T08:29:35.456Z,19.20
2022-09-14T08:32:24.614Z,19.30
2022-09-14T08:34:52.418Z,19.30
2022-09-14T08:37:20.831Z,19.30
2022-09-14T08:39:51.901Z,19.40
2022-09-14T08:42:20.972Z,19.40
2022-09-14T08:45:05.089Z,19.30
2022-09-14T08:47:42.950Z,19.50
2022-09-14T08:50:24.970Z,19.50
2022-09-14T08:52:53.794Z,19.60
2022-09-14T08:55:41.438Z,19.60
2022-09-14T08:58:57.434Z,19.70
2022-09-14T09:01:44.343Z,19.70
2022-09-14T09:04:53.576Z,19.70
2022-09-14T09:07:52.457Z,19.70
2022-09-14T09:10:19.938Z,19.70
2022-09-14T09:12:51.919Z,19.70
2022-09-14T09:15:26.592Z,19.70
2022-09-14T09:18:02.207Z,19.70
2022-09-14T09:20:46.371Z,19.70
2022-09-14T09:23:24.438Z,19.80
2022-09-14T09:26:02.610Z,19.80
2022-09-14T09:28:30.667Z,19.80
2022-09-14T09:31:17.871Z,19.70
2022-09-14T09:34:05.050Z,19.70
2022-09-14T09:36:36.933Z,19.70
2022-09-14T09:39:05.476Z,19.80
2022-09-14T09:41:44.108Z,19.80
2022-09-14T09:44:11.270Z,19.80
2022-09-14T09:46:45.239Z,20.00
2022-09-14T09:49:30.822Z,20.00
2022-09-14T09:52:08.970Z,20.10
2022-09-14T09:54:38.051Z,20.20
2022-09-14T09:57:19.577Z,20.20
2022-09-14T09:59:48.418Z,20.20
2022-09-14T10:02:32.126Z,20.30
2022-09-14T10:05:11.987Z,20.40
2022-09-14T10:08:06.912Z,20.50
2022-09-14T10:10:38.705Z,20.50
2022-09-14T10:13:16.046Z,20.40
2022-09-14T10:15:43.585Z,20.40
2022-09-14T10:18:13.555Z,20.40
2022-09-14T10:20:46.023Z,20.50
2022-09-14T10:23:19.149Z,20.50
2022-09-14T10:26:12.506Z,20.50
2022-09-14T10:28:47.912Z,20.60
2022-09-14T10:31:20.550Z,20.70
2022-09-14T10:33:52.074Z,20.70
2022-09-14T10:36:32.175Z,20.80
2022-09-14T10:39:07.883Z,20.80
2022-09-14T10:42:04.065Z,20.80
2022-09-14T10:44:43.531Z,20.80
2022-09-14T10:47:16.517Z,20.90
2022-09-14T10:50:11.540Z,20.90
2022-09-14T10:53:00.392Z,21.00
2022-09-14T10:55:44.806Z,20.90
2022-09-14T10:58:38.031Z,20.90
2022-09-14T11:01:35.889Z,21.00
2022-09-14T11:04:25.645Z,20.90
2022-09-14T11:06:55.474Z,20.90
2022-09-14T11:09:28.305Z,20.90
2022-09-14T11:12:08.750Z,20.90
2022-09-14T11:14:51.718Z,20.90
2022-09-14T11:17:48.356Z,20.90
2022-09-14T11:20:26.544Z,20.90
2022-09-14T11:23:18.439Z,21.00
2022-09-14T11:26:12.676Z,21.00
2022-09-14T11:28:43.360Z,21.00
2022-09-14T11:31:19.537Z,21.00
2022-09-14T11:33:54.550Z,21.00
2022-09-14T11:36:25.639Z,21.00
2022-09-14T11:39:06.934Z,21.00
2022-09-14T11:41:38.542Z,21.00
2022-09-14T11:44:17.642Z,21.00
2022-09-14T11:47:09.797Z,21.20
2022-09-14T11:49:55.781Z,21.10
2022-09-14T11:52:30.467Z,21.10
2022-09-14T11:54:58.798Z,21.10
2022-09-14T11:57:28.845Z,21.10
2022-09-14T12:00:12.411Z,21.10
2022-09-14T12:02:41.234Z,21.20
2022-09-14T12:05:08.284Z,21.30
2022-09-14T12:07:50.290Z,21.40
2022-09-14T12:10:21.834Z,21.40
2022-09-14T12:13:07.093Z,21.30
2022-09-14T12:15:41.124Z,21.40
2022-09-14T12:18:08.196Z,21.50
2022-09-14T12:20:43.417Z,21.70
2022-09-14T12:48:12.074Z,21.90
2022-09-14T12:50:44.593Z,22.00
2022-09-14T12:56:41.649Z,21.90
2022-09-14T12:59:40.744Z,21.90
2022-09-14T13:02:42.139Z,22.00
2022-09-14T13:13:48.351Z,21.60
2022-09-14T13:16:30.472Z,21.70
2022-09-14T13:19:07.987Z,21.90
2022-09-14T13:21:48.096Z,21.80
2022-09-14T13:24:24.457Z,21.80
2022-09-14T13:26:53.159Z,21.90
2022-09-14T13:29:21.824Z,21.80
2022-09-14T13:31:49.783Z,21.80
2022-09-14T13:34:25.954Z,21.70
2022-09-14T13:36:56.587Z,21.70
2022-09-14T13:39:38.901Z,21.70
2022-09-14T13:42:06.918Z,21.70
2022-09-14T13:44:45.280Z,21.80
2022-09-14T13:47:14.819Z,21.80
2022-09-14T13:49:46.026Z,21.70
2022-09-14T13:52:22.136Z,21.70
2022-09-14T13:55:11.081Z,21.50
2022-09-14T13:57:38.145Z,21.50
2022-09-14T14:00:21.426Z,21.40
2022-09-14T14:02:53.439Z,21.30
2022-09-14T14:05:28.541Z,21.30
2022-09-14T14:07:57.619Z,21.20
2022-09-14T14:10:35.414Z,21.20
2022-09-14T14:13:03.188Z,21.20
2022-09-14T14:15:33.667Z,21.20
2022-09-14T14:18:00.549Z,21.20
2022-09-14T14:20:30.115Z,21.20
2022-09-14T14:23:02.656Z,21.20
2022-09-14T14:25:45.508Z,21.20
2022-09-14T14:28:28.489Z,21.20
2022-09-14T14:30:57.978Z,21.10
2022-09-14T14:33:24.963Z,21.10
2022-09-14T14:35:54.414Z,21.00
2022-09-14T14:38:23.455Z,21.00
2022-09-14T14:40:52.333Z,21.00
2022-09-14T14:43:25.304Z,21.00
2022-09-14T14:45:58.777Z,20.90
2022-09-14T14:48:26.984Z,20.80
2022-09-14T14:50:55.713Z,20.80
2022-09-14T14:53:23.896Z,20.80
2022-09-14T14:55:51.005Z,20.80
2022-09-14T14:58:19.533Z,20.70
2022-09-14T15:00:47.605Z,20.70
2022-09-14T15:03:15.585Z,20.70
2022-09-14T15:05:43.629Z,20.70
2022-09-14T15:08:15.468Z,20.70
2022-09-14T15:10:42.653Z,20.70
2022-09-14T15:13:12.059Z,20.70
2022-09-14T15:15:41.923Z,20.60
2022-09-14T15:18:09.407Z,20.60
2022-09-14T15:20:36.391Z,20.60
2022-09-14T15:23:03.321Z,20.50
2022-09-14T15:25:30.301Z,20.50
2022-09-14T15:27:57.227Z,20.50
2022-09-14T15:30:24.153Z,20.50
2022-09-14T15:32:51.017Z,20.40
2022-09-14T15:35:18.125Z,20.40
2022-09-14T15:37:47.412Z,20.40
2022-09-14T15:40:14.546Z,20.40
2022-09-14T15:42:41.492Z,20.40
2022-09-14T15:45:09.234Z,20.40
2022-09-14T15:47:36.714Z,20.30
2022-09-14T15:50:05.478Z,20.30
2022-09-14T15:52:36.076Z,20.30
2022-09-14T15:55:05.603Z,20.20
2022-09-14T15:57:32.461Z,20.30
2022-09-14T15:59:59.400Z,20.30
2022-09-14T16:02:26.396Z,20.20
2022-09-14T16:04:53.308Z,20.20
2022-09-14T16:07:20.254Z,20.20
2022-09-14T16:09:47.147Z,20.10
2022-09-14T16:12:14.311Z,20.10
2022-09-14T16:14:41.307Z,20.10
2022-09-14T16:17:09.164Z,20.20
2022-09-14T16:19:36.197Z,20.20
2022-09-14T16:22:03.710Z,20.20
2022-09-14T16:24:31.893Z,20.10
2022-09-14T16:26:59.775Z,20.20
2022-09-14T16:29:26.963Z,20.10
2022-09-14T16:31:54.240Z,20.10
2022-09-14T16:34:27.122Z,20.10
2022-09-14T16:36:55.352Z,20.10
2022-09-14T16:39:25.269Z,20.00
2022-09-14T16:41:54.134Z,20.00
2022-09-14T16:44:24.379Z,20.00
2022-09-14T16:46:57.569Z,20.00
2022-09-14T16:49:28.484Z,20.00
2022-09-14T16:51:56.846Z,19.90
2022-09-14T16:54:25.983Z,19.90
2022-09-14T16:56:57.197Z,19.80
2022-09-14T16:59:24.935Z,19.90
2022-09-14T17:01:54.658Z,19.80
2022-09-14T17:04:22.923Z,19.80
2022-09-14T17:06:51.830Z,19.80
2022-09-14T17:09:21.618Z,19.80
2022-09-14T17:11:48.738Z,19.80
2022-09-14T17:14:19.008Z,19.80
2022-09-14T17:16:46.456Z,19.80
2022-09-14T17:19:13.475Z,19.70
2022-09-14T17:21:41.980Z,19.70
2022-09-14T17:24:09.477Z,19.70
2022-09-14T17:26:36.546Z,19.60
2022-09-14T17:29:05.254Z,19.50
2022-09-14T17:31:35.449Z,19.50
2022-09-14T17:34:04.054Z,19.40
2022-09-14T17:36:31.611Z,19.40
2022-09-14T17:39:02.037Z,19.40
2022-09-14T17:41:31.720Z,19.30
2022-09-14T17:44:01.910Z,19.30
2022-09-14T17:46:29.636Z,19.30
2022-09-14T17:48:59.067Z,19.40
2022-09-14T17:51:28.353Z,19.30
2022-09-14T17:53:56.994Z,19.30
2022-09-14T17:56:26.183Z,19.30
2022-09-14T17:59:06.262Z,19.30
2022-09-14T18:01:34.013Z,19.40
2022-09-14T18:04:05.893Z,19.30
2022-09-14T18:06:35.780Z,19.20
2022-09-14T18:09:08.016Z,19.20
2022-09-14T18:11:36.384Z,19.10
2022-09-14T18:14:04.254Z,19.10
2022-09-14T18:16:31.463Z,19.00
2022-09-14T18:18:58.749Z,19.00
2022-09-14T18:21:26.680Z,19.00
2022-09-14T18:23:54.814Z,19.00
2022-09-14T18:26:22.989Z,18.90
2022-09-14T18:28:51.084Z,18.90
2022-09-14T18:31:19.821Z,18.90
2022-09-14T18:33:54.736Z,18.90
2022-09-14T18:36:22.689Z,18.90
2022-09-14T18:38:51.429Z,18.90
2022-09-14T18:41:19.198Z,19.00
2022-09-14T18:43:49.756Z,19.00
2022-09-14T18:46:18.070Z,19.00
2022-09-14T18:48:45.656Z,19.00
2022-09-14T18:51:14.235Z,18.90
2022-09-14T18:53:42.096Z,18.90
2022-09-14T18:56:11.545Z,18.90
2022-09-14T18:58:42.262Z,18.90
2022-09-14T19:01:10.706Z,18.80
2022-09-14T19:03:39.264Z,18.90
2022-09-14T19:06:15.786Z,18.80
2022-09-14T19:08:43.121Z,18.80
2022-09-14T19:11:20.949Z,18.80
2022-09-14T19:13:48.691Z,18.80
2022-09-14T19:16:20.945Z,18.80
2022-09-14T19:18:49.438Z,18.80
2022-09-14T19:21:23.807Z,18.80
2022-09-14T19:24:04.102Z,18.80
2022-09-14T19:26:35.272Z,18.70
2022-09-14T19:29:06.072Z,18.80
2022-09-14T19:31:33.618Z,18.80
2022-09-14T19:34:02.550Z,18.70
2022-09-14T19:36:30.611Z,18.70
2022-09-14T19:39:02.105Z,18.70
2022-09-14T19:41:30.934Z,18.60
2022-09-14T19:43:58.053Z,18.60
2022-09-14T19:46:25.663Z,18.70
2022-09-14T19:48:53.470Z,18.70
2022-09-14T19:51:23.722Z,18.70
2022-09-14T19:53:52.351Z,18.60
2022-09-14T19:56:21.747Z,18.60
2022-09-14T19:58:51.219Z,18.60
2022-09-14T20:01:19.833Z,18.60
2022-09-14T20:03:47.563Z,18.60
2022-09-14T20:06:20.989Z,18.60
2022-09-14T20:08:52.698Z,18.60
2022-09-14T20:11:21.189Z,18.50
2022-09-14T20:13:48.615Z,18.50
2022-09-14T20:16:26.278Z,18.50
2022-09-14T20:18:53.244Z,18.50
2022-09-14T20:21:22.574Z,18.50
2022-09-14T20:24:15.006Z,18.50
2022-09-14T20:26:43.076Z,18.60
2022-09-14T20:29:10.038Z,18.50
2022-09-14T20:31:37.261Z,18.50
2022-09-14T20:34:04.575Z,18.50
2022-09-14T20:36:32.471Z,18.40
2022-09-14T20:39:00.307Z,18.50
2022-09-14T20:41:29.990Z,18.50
2022-09-14T20:43:57.955Z,18.50
2022-09-14T20:46:31.943Z,18.50
2022-09-14T20:48:59.053Z,18.50
2022-09-14T20:51:26.685Z,18.40
2022-09-14T20:53:56.203Z,18.40
2022-09-14T20:56:27.183Z,18.40
2022-09-14T20:58:56.195Z,18.50
2022-09-14T21:01:25.296Z,18.50
2022-09-14T21:03:53.467Z,18.50
2022-09-14T21:06:22.921Z,18.50
2022-09-14T21:08:50.251Z,18.40
2022-09-14T21:11:22.706Z,18.40
2022-09-14T21:13:51.373Z,18.50
2022-09-14T21:16:20.032Z,18.40
2022-09-14T21:18:48.272Z,18.40
2022-09-14T21:21:17.258Z,18.40
2022-09-14T21:23:44.403Z,18.30
2022-09-14T21:26:12.610Z,18.30
2022-09-14T21:28:40.834Z,18.30
2022-09-14T21:31:21.442Z,18.40
2022-09-14T21:33:51.249Z,18.40
2022-09-14T21:36:24.046Z,18.40
2022-09-14T21:39:01.731Z,18.40
2022-09-14T21:41:30.486Z,18.30
2022-09-14T21:43:57.454Z,18.20
2022-09-14T21:46:25.331Z,18.30
2022-09-14T21:48:52.648Z,18.20
2022-09-14T21:51:25.429Z,18.10
2022-09-14T21:53:57.825Z,18.10
2022-09-14T21:56:28.255Z,18.20
2022-09-14T21:59:07.614Z,18.20
2022-09-14T22:01:34.986Z,18.10
2022-09-14T22:04:02.657Z,18.10
2022-09-14T22:06:31.461Z,18.10
2022-09-14T22:09:02.104Z,18.10
2022-09-14T22:11:34.382Z,18.00
2022-09-14T22:14:24.004Z,18.00
2022-09-14T22:16:51.573Z,17.90
2022-09-14T22:19:30.039Z,17.90
2022-09-14T22:21:57.178Z,17.90
2022-09-14T22:24:27.711Z,17.80
2022-09-14T22:26:54.775Z,17.90
2022-09-14T22:29:22.082Z,17.90
2022-09-14T22:31:49.862Z,17.90
2022-09-14T22:34:17.708Z,17.90
2022-09-14T22:36:46.043Z,17.90
2022-09-14T22:39:13.758Z,17.90
2022-09-14T22:41:40.967Z,17.80
2022-09-14T22:44:08.553Z,17.80
2022-09-14T22:46:36.069Z,17.80
2022-09-14T22:49:03.252Z,17.90
2022-09-14T22:51:32.537Z,17.90
2022-09-14T22:53:59.479Z,17.90
2022-09-14T22:56:30.029Z,17.90
2022-09-14T22:58:57.123Z,17.90
2022-09-14T23:01:26.937Z,17.90
2022-09-14T23:03:59.662Z,17.90
2022-09-14T23:06:33.990Z,17.90
2022-09-14T23:09:01.435Z,17.90
2022-09-14T23:11:28.710Z,18.00
2022-09-14T23:13:57.597Z,17.90
2022-09-14T23:16:27.477Z,17.90
2022-09-14T23:18:56.890Z,17.90
2022-09-14T23:21:24.769Z,17.90
2022-09-14T23:23:53.507Z,17.90
2022-09-14T23:26:21.220Z,17.90
2022-09-14T23:28:53.751Z,17.80
2022-09-14T23:31:21.333Z,17.90
2022-09-14T23:33:53.610Z,17.90
2022-09-14T23:36:22.213Z,17.90
2022-09-14T23:38:49.604Z,17.90
2022-09-14T23:41:17.823Z,17.90
2022-09-14T23:43:45.175Z,17.90
2022-09-14T23:46:12.798Z,17.80
2022-09-14T23:48:39.953Z,17.80
2022-09-14T23:51:09.053Z,17.90
2022-09-14T23:53:36.838Z,18.00
2022-09-14T23:56:04.817Z,18.00
2022-09-14T23:58:31.923Z,17.90
